Time;durP1;ratioP1;P1;durP2;ratioP2;P2;SDS_P1;SDS_P2;PMS_P1;PMS_P2;Temp;Humidity;BMP_temperature;BMP_pressure;BME280_temperature;BME280_humidity;BME280_pressure;Samples;Min_cycle;Max_cycle;Signal;HPM_P1;HPM_P2
2022/08/26 00:02:15;;;;;;;43.37;19.43;;;;;;;;;;5051572;28;20244;-71
2022/08/26 00:04:46;;;;;;;35.47;19.50;;;;;;;;;;5050232;28;20223;-71
2022/08/26 00:07:13;;;;;;;43.43;19.17;;;;;;;;;;5051572;28;20716;-72
2022/08/26 00:09:40;;;;;;;39.83;19.07;;;;;;;;;;5051633;28;20195;-71
2022/08/26 00:12:12;;;;;;;38.27;20.10;;;;;;;;;;5047941;28;20187;-71
2022/08/26 00:14:40;;;;;;;29.97;19.17;;;;;;;;;;5051374;28;20654;-71
2022/08/26 00:17:07;;;;;;;30.97;19.00;;;;;;;;;;5051670;28;20225;-71
2022/08/26 00:19:34;;;;;;;36.83;19.43;;;;;;;;;;5049989;28;20187;-71
2022/08/26 00:22:01;;;;;;;35.10;19.50;;;;;;;;;;5033280;28;20198;-71
2022/08/26 00:24:28;;;;;;;41.60;19.43;;;;;;;;;;5042423;28;20241;-71
2022/08/26 00:26:56;;;;;;;31.47;19.60;;;;;;;;;;5043912;28;20651;-71
2022/08/26 00:29:24;;;;;;;34.73;20.17;;;;;;;;;;5046267;28;20193;-71
2022/08/26 00:31:50;;;;;;;33.70;19.67;;;;;;;;;;5051218;28;20183;-71
2022/08/26 00:34:17;;;;;;;33.93;18.87;;;;;;;;;;5051005;28;20190;-71
2022/08/26 00:36:45;;;;;;;35.57;20.33;;;;;;;;;;5050993;28;20278;-71
2022/08/26 00:39:12;;;;;;;33.97;19.77;;;;;;;;;;5051169;28;20179;-71
2022/08/26 00:41:38;;;;;;;38.07;20.00;;;;;;;;;;5050634;28;20197;-71
2022/08/26 00:44:05;;;;;;;36.63;19.63;;;;;;;;;;5066554;28;20215;-72
2022/08/26 00:46:33;;;;;;;40.77;20.60;;;;;;;;;;5057621;28;20732;-71
2022/08/26 00:49:06;;;;;;;34.00;19.70;;;;;;;;;;5065794;28;20190;-71
2022/08/26 00:51:49;;;;;;;36.03;20.17;;;;;;;;;;5064916;28;20234;-71
2022/08/26 00:54:15;;;;;;;34.00;19.80;;;;;;;;;;5065719;28;20191;-71
2022/08/26 00:56:44;;;;;;;34.80;19.73;;;;;;;;;;5065609;28;20658;-71
2022/08/26 00:59:12;;;;;;;32.27;18.20;;;;;;;;;;5050995;28;20213;-71
2022/08/26 01:01:43;;;;;;;34.53;19.47;;;;;;;;;;5042276;28;20278;-72
2022/08/26 01:04:27;;;;;;;31.73;18.37;;;;;;;;;;5050169;28;20218;-71
2022/08/26 01:06:54;;;;;;;30.23;18.37;;;;;;;;;;5065684;28;20183;-71
2022/08/26 01:09:38;;;;;;;30.60;17.47;;;;;;;;;;5050385;28;20187;-71
2022/08/26 01:12:06;;;;;;;27.63;17.20;;;;;;;;;;5065285;28;20183;-71
2022/08/26 01:14:33;;;;;;;29.40;17.87;;;;;;;;;;5050255;28;20199;-71
2022/08/26 01:17:02;;;;;;;28.47;16.93;;;;;;;;;;5065215;28;20593;-71
2022/08/26 01:19:31;;;;;;;27.60;17.23;;;;;;;;;;5049025;28;20195;-71
2022/08/26 01:21:59;;;;;;;26.23;17.23;;;;;;;;;;5065100;28;20288;-74
2022/08/26 01:24:26;;;;;;;24.13;16.17;;;;;;;;;;5065055;28;20234;-71
2022/08/26 01:26:55;;;;;;;27.77;17.47;;;;;;;;;;5050189;28;20208;-71
2022/08/26 01:29:40;;;;;;;26.03;16.37;;;;;;;;;;5062578;28;20175;-71
2022/08/26 01:32:07;;;;;;;28.87;17.37;;;;;;;;;;5065566;28;20182;-71
2022/08/26 01:34:35;;;;;;;26.87;17.30;;;;;;;;;;5054650;28;20200;-71
2022/08/26 01:37:03;;;;;;;24.23;17.20;;;;;;;;;;5057322;28;20179;-71
2022/08/26 01:39:31;;;;;;;25.87;17.00;;;;;;;;;;5049855;28;20225;-71
2022/08/26 01:42:16;;;;;;;27.33;16.53;;;;;;;;;;5048323;28;20178;-71
2022/08/26 01:44:46;;;;;;;24.57;16.97;;;;;;;;;;5048024;28;20738;-71
2022/08/26 01:47:13;;;;;;;26.43;15.83;;;;;;;;;;5050096;28;20191;-71
2022/08/26 01:49:40;;;;;;;28.00;15.77;;;;;;;;;;5064761;28;20541;-71
2022/08/26 01:52:07;;;;;;;24.60;15.80;;;;;;;;;;5055693;28;20218;-71
2022/08/26 01:54:38;;;;;;;32.03;16.20;;;;;;;;;;5049720;28;20221;-71
2022/08/26 01:57:06;;;;;;;24.43;15.67;;;;;;;;;;5064477;28;20876;-71
2022/08/26 01:59:33;;;;;;;23.70;14.33;;;;;;;;;;5049619;28;20190;-70
2022/08/26 02:02:00;;;;;;;21.67;14.70;;;;;;;;;;5050853;28;20182;-71
2022/08/26 02:04:30;;;;;;;25.80;15.17;;;;;;;;;;5031701;28;20698;-71
2022/08/26 02:06:58;;;;;;;23.13;13.57;;;;;;;;;;5047518;28;20190;-70
2022/08/26 02:09:24;;;;;;;25.53;14.80;;;;;;;;;;5031158;28;20730;-71
2022/08/26 02:11:52;;;;;;;27.60;14.17;;;;;;;;;;5049035;28;20186;-71
2022/08/26 02:14:23;;;;;;;29.33;14.53;;;;;;;;;;5049390;28;20683;-71
2022/08/26 02:16:52;;;;;;;26.77;14.43;;;;;;;;;;5046923;28;20197;-72
2022/08/26 02:19:20;;;;;;;22.53;15.10;;;;;;;;;;5064008;28;20277;-72
2022/08/26 02:21:49;;;;;;;27.23;14.70;;;;;;;;;;5058484;28;20214;-72
2022/08/26 02:24:21;;;;;;;21.03;14.53;;;;;;;;;;5049597;28;20295;-70
2022/08/26 02:26:49;;;;;;;27.57;13.60;;;;;;;;;;5049344;28;20183;-71
2022/08/26 02:29:24;;;;;;;22.00;13.73;;;;;;;;;;5048066;28;20195;-70
2022/08/26 02:31:52;;;;;;;25.00;13.13;;;;;;;;;;5042783;28;20555;-71
2022/08/26 02:34:20;;;;;;;24.43;12.93;;;;;;;;;;5047373;28;20190;-70
2022/08/26 02:36:48;;;;;;;29.83;11.70;;;;;;;;;;5048836;28;20191;-70
2022/08/26 02:39:16;;;;;;;24.30;11.70;;;;;;;;;;5048285;28;20284;-70
2022/08/26 02:41:48;;;;;;;29.80;12.33;;;;;;;;;;5048837;28;20210;-70
2022/08/26 02:44:14;;;;;;;29.37;11.93;;;;;;;;;;5046802;28;21048;-70
2022/08/26 02:46:41;;;;;;;25.93;11.83;;;;;;;;;;5048507;28;20205;-70
2022/08/26 02:49:12;;;;;;;24.57;11.47;;;;;;;;;;5047330;28;20222;-70
2022/08/26 02:51:39;;;;;;;27.53;11.77;;;;;;;;;;5048225;28;20549;-71
2022/08/26 02:54:08;;;;;;;25.50;11.40;;;;;;;;;;5048482;28;20199;-71
2022/08/26 02:56:52;;;;;;;20.83;11.87;;;;;;;;;;5047275;28;20744;-71
2022/08/26 02:59:20;;;;;;;19.53;11.03;;;;;;;;;;5044116;28;20234;-71
2022/08/26 03:01:50;;;;;;;22.67;12.20;;;;;;;;;;5048601;28;20198;-71
2022/08/26 03:04:17;;;;;;;23.77;11.07;;;;;;;;;;5048209;28;20297;-70
2022/08/26 03:06:44;;;;;;;20.73;12.13;;;;;;;;;;5047170;28;20547;-70
2022/08/26 03:09:18;;;;;;;18.57;12.43;;;;;;;;;;5048201;28;20558;-70
2022/08/26 03:11:45;;;;;;;21.20;11.57;;;;;;;;;;5048251;28;20179;-70
2022/08/26 03:14:30;;;;;;;11.80;10.57;;;;;;;;;;5048098;28;20194;-72
2022/08/26 03:16:56;;;;;;;15.00;11.17;;;;;;;;;;5047660;28;20189;-70
2022/08/26 03:19:24;;;;;;;15.93;11.63;;;;;;;;;;5047931;28;20554;-70
2022/08/26 03:21:52;;;;;;;16.93;10.97;;;;;;;;;;5046915;28;20270;-71
2022/08/26 03:24:24;;;;;;;24.00;12.13;;;;;;;;;;5047828;28;20233;-70
2022/08/26 03:26:51;;;;;;;15.93;11.20;;;;;;;;;;5047937;28;20240;-70
2022/08/26 03:32:04;;;;;;;16.97;11.47;;;;;;;;;;5030184;28;20252;-70
2022/08/26 03:34:32;;;;;;;17.27;11.57;;;;;;;;;;5043720;28;20199;-71
2022/08/26 03:36:59;;;;;;;22.67;11.00;;;;;;;;;;5046185;28;20698;-71
2022/08/26 03:39:26;;;;;;;19.37;11.33;;;;;;;;;;5030119;28;20187;-70
2022/08/26 03:41:57;;;;;;;16.27;11.47;;;;;;;;;;5046563;28;20218;-71
2022/08/26 03:44:25;;;;;;;14.33;10.93;;;;;;;;;;5003101;28;20219;-67
2022/08/26 03:47:11;;;;;;;16.20;10.40;;;;;;;;;;5039268;28;20277;-68
2022/08/26 03:49:38;;;;;;;18.10;11.07;;;;;;;;;;5036296;28;21031;-70
2022/08/26 03:52:05;;;;;;;14.57;11.03;;;;;;;;;;5038299;28;20285;-70
2022/08/26 03:54:32;;;;;;;15.17;11.40;;;;;;;;;;5024060;28;20245;-70
2022/08/26 03:56:59;;;;;;;15.10;11.27;;;;;;;;;;5040327;28;20607;-72
2022/08/26 03:59:26;;;;;;;15.90;11.40;;;;;;;;;;5026482;28;20661;-72
2022/08/26 04:01:54;;;;;;;16.93;10.83;;;;;;;;;;5007404;28;20216;-73
2022/08/26 04:04:21;;;;;;;17.47;11.73;;;;;;;;;;5023658;28;20214;-76
2022/08/26 04:06:54;;;;;;;17.37;11.37;;;;;;;;;;5041154;28;20217;-71
2022/08/26 04:09:21;;;;;;;22.00;11.73;;;;;;;;;;5022619;28;20708;-68
2022/08/26 04:11:48;;;;;;;21.50;11.00;;;;;;;;;;5041005;28;20187;-65
2022/08/26 04:14:20;;;;;;;19.80;12.90;;;;;;;;;;5040274;28;20245;-68
2022/08/26 04:16:47;;;;;;;19.40;12.13;;;;;;;;;;5022742;28;20301;-71
2022/08/26 04:19:14;;;;;;;17.60;13.37;;;;;;;;;;5023635;28;21026;-72
2022/08/26 04:21:41;;;;;;;27.37;14.00;;;;;;;;;;5040552;28;20191;-73
2022/08/26 04:24:26;;;;;;;39.70;13.60;;;;;;;;;;5028458;28;20309;-71
2022/08/26 04:26:55;;;;;;;34.97;14.17;;;;;;;;;;5038881;28;20241;-68
2022/08/26 04:29:40;;;;;;;35.33;14.10;;;;;;;;;;5030997;28;20174;-68
2022/08/26 04:32:07;;;;;;;33.67;14.43;;;;;;;;;;5041035;28;20749;-68
2022/08/26 04:35:02;;;;;;;41.40;14.33;;;;;;;;;;5036599;28;20191;-69
2022/08/26 04:38:22;;;;;;;53.17;15.10;;;;;;;;;;4996528;28;20198;-68
2022/08/26 04:41:07;;;;;;;33.17;14.27;;;;;;;;;;5016121;28;20685;-69
2022/08/26 04:43:42;;;;;;;42.43;14.93;;;;;;;;;;5011804;28;20190;-66
2022/08/26 04:46:10;;;;;;;40.73;16.27;;;;;;;;;;5043294;28;20217;-67
2022/08/26 04:48:39;;;;;;;43.87;15.43;;;;;;;;;;5042728;28;20994;-69
2022/08/26 04:51:07;;;;;;;42.03;16.60;;;;;;;;;;5033190;28;20230;-69
2022/08/26 04:53:35;;;;;;;37.83;17.13;;;;;;;;;;5025253;28;20191;-67
2022/08/26 04:56:02;;;;;;;36.60;15.93;;;;;;;;;;5025909;28;20606;-67
2022/08/26 04:58:29;;;;;;;40.07;16.33;;;;;;;;;;5041077;28;20286;-68
2022/08/26 05:00:57;;;;;;;25.73;16.83;;;;;;;;;;5042305;28;20178;-66
2022/08/26 05:03:26;;;;;;;25.87;18.47;;;;;;;;;;5031496;28;20277;-66
2022/08/26 05:05:56;;;;;;;27.60;18.43;;;;;;;;;;5045123;28;20218;-66
2022/08/26 05:08:23;;;;;;;34.23;17.07;;;;;;;;;;5017895;28;20194;-67
2022/08/26 05:10:53;;;;;;;30.40;18.13;;;;;;;;;;5048483;28;20197;-67
2022/08/26 05:13:21;;;;;;;30.60;17.27;;;;;;;;;;5049195;28;20194;-68
2022/08/26 05:15:48;;;;;;;29.10;16.87;;;;;;;;;;5030452;28;20186;-68
2022/08/26 05:18:16;;;;;;;35.87;17.83;;;;;;;;;;5048055;28;20307;-67
2022/08/26 05:20:46;;;;;;;26.37;16.67;;;;;;;;;;5031525;28;20195;-67
2022/08/26 05:23:33;;;;;;;30.87;16.57;;;;;;;;;;5034042;28;20242;-67
2022/08/26 05:26:00;;;;;;;26.87;17.47;;;;;;;;;;5028608;28;20240;-69
2022/08/26 05:28:30;;;;;;;31.47;17.60;;;;;;;;;;5035015;28;20191;-67
2022/08/26 05:30:57;;;;;;;24.20;16.70;;;;;;;;;;5049037;28;20273;-68
2022/08/26 05:33:24;;;;;;;27.00;16.00;;;;;;;;;;5013486;28;20244;-72
2022/08/26 05:35:51;;;;;;;22.43;15.33;;;;;;;;;;5048415;28;20274;-67
2022/08/26 05:38:18;;;;;;;21.63;16.40;;;;;;;;;;5049060;28;20192;-70
2022/08/26 05:40:47;;;;;;;29.20;16.07;;;;;;;;;;5048498;28;20201;-70
2022/08/26 05:43:18;;;;;;;28.03;15.87;;;;;;;;;;5029822;28;21030;-71
2022/08/26 05:45:46;;;;;;;25.93;16.43;;;;;;;;;;5048257;28;20219;-69
2022/08/26 05:48:15;;;;;;;33.40;17.10;;;;;;;;;;5031176;28;21094;-68
2022/08/26 05:50:46;;;;;;;21.87;16.40;;;;;;;;;;5047017;28;20189;-69
2022/08/26 05:53:13;;;;;;;31.90;17.50;;;;;;;;;;5046900;28;20233;-70
2022/08/26 05:55:43;;;;;;;35.10;17.80;;;;;;;;;;5029376;28;20838;-70
2022/08/26 05:58:28;;;;;;;29.77;16.80;;;;;;;;;;5041581;28;20205;-70
2022/08/26 06:00:55;;;;;;;29.77;17.13;;;;;;;;;;5031080;28;20183;-69
2022/08/26 06:03:23;;;;;;;28.20;17.07;;;;;;;;;;5046792;28;20191;-68
2022/08/26 06:05:50;;;;;;;28.53;16.93;;;;;;;;;;5048939;28;20310;-67
2022/08/26 06:08:19;;;;;;;23.80;16.93;;;;;;;;;;5048513;28;20593;-69
2022/08/26 06:11:05;;;;;;;27.83;17.90;;;;;;;;;;5048146;28;20198;-72
2022/08/26 06:13:33;;;;;;;32.00;17.80;;;;;;;;;;5043311;28;20281;-74
2022/08/26 06:16:02;;;;;;;25.43;17.37;;;;;;;;;;5013081;28;20606;-69
2022/08/26 06:18:50;;;;;;;25.30;16.23;;;;;;;;;;5030614;28;20265;-69
2022/08/26 06:21:17;;;;;;;24.87;14.97;;;;;;;;;;5030988;28;20195;-68
2022/08/26 06:26:30;;;;;;;28.50;17.20;;;;;;;;;;5010630;28;20227;-75
2022/08/26 06:28:57;;;;;;;27.10;15.77;;;;;;;;;;5010389;28;20199;-68
2022/08/26 06:31:24;;;;;;;27.70;14.83;;;;;;;;;;5027617;28;20191;-70
2022/08/26 06:33:52;;;;;;;24.77;14.93;;;;;;;;;;5027770;28;20692;-69
2022/08/26 06:36:24;;;;;;;22.90;14.90;;;;;;;;;;5010343;28;20249;-69
2022/08/26 06:38:51;;;;;;;24.00;13.87;;;;;;;;;;5026047;28;20214;-73
2022/08/26 06:41:19;;;;;;;21.63;13.43;;;;;;;;;;5011590;28;20309;-67
2022/08/26 06:43:46;;;;;;;24.70;14.80;;;;;;;;;;5026792;28;20227;-70
2022/08/26 06:46:15;;;;;;;27.30;14.87;;;;;;;;;;5026575;28;20242;-71
2022/08/26 06:49:00;;;;;;;25.87;15.27;;;;;;;;;;5027620;28;20631;-67
2022/08/26 06:51:28;;;;;;;24.80;14.77;;;;;;;;;;5027329;28;20283;-69
2022/08/26 06:54:12;;;;;;;26.80;14.63;;;;;;;;;;4999081;28;20210;-67
2022/08/26 06:56:39;;;;;;;28.10;13.30;;;;;;;;;;5019542;28;20227;-66
2022/08/26 06:59:07;;;;;;;29.60;13.87;;;;;;;;;;5003531;28;20322;-67
2022/08/26 07:01:36;;;;;;;29.20;14.00;;;;;;;;;;5004254;28;20306;-68
2022/08/26 07:04:04;;;;;;;27.80;13.97;;;;;;;;;;5021152;28;20290;-68
2022/08/26 07:06:39;;;;;;;23.77;14.30;;;;;;;;;;5002752;28;20234;-69
2022/08/26 07:09:21;;;;;;;31.53;14.27;;;;;;;;;;5006559;28;20698;-67
2022/08/26 07:11:55;;;;;;;26.20;13.77;;;;;;;;;;5027110;28;20199;-67
2022/08/26 07:14:22;;;;;;;25.43;14.13;;;;;;;;;;5026040;28;20196;-66
2022/08/26 07:16:51;;;;;;;26.23;13.10;;;;;;;;;;5027118;28;20279;-66
2022/08/26 07:19:38;;;;;;;28.30;13.53;;;;;;;;;;5006183;28;21222;-68
2022/08/26 07:22:20;;;;;;;29.43;12.97;;;;;;;;;;4993392;28;20689;-68
2022/08/26 07:25:39;;;;;;;26.90;13.27;;;;;;;;;;5027752;28;20329;-68
2022/08/26 07:28:37;;;;;;;31.17;13.57;;;;;;;;;;5006212;28;20671;-69
2022/08/26 07:31:08;;;;;;;29.70;12.97;;;;;;;;;;5016408;28;20212;-68
2022/08/26 07:35:00;;;;;;;31.70;12.83;;;;;;;;;;4973312;28;20190;-69
2022/08/26 07:38:17;;;;;;;21.10;12.40;;;;;;;;;;4984106;28;20188;-68
2022/08/26 07:41:17;;;;;;;30.73;13.60;;;;;;;;;;4962478;28;20204;-69
2022/08/26 07:44:11;;;;;;;26.60;13.37;;;;;;;;;;4957306;28;20670;-68
2022/08/26 07:46:45;;;;;;;29.57;14.70;;;;;;;;;;5002175;28;20312;-69
2022/08/26 07:50:01;;;;;;;27.73;13.23;;;;;;;;;;4996532;28;20207;-70
2022/08/26 07:52:28;;;;;;;33.10;13.33;;;;;;;;;;4984642;28;20211;-69
2022/08/26 07:54:56;;;;;;;30.40;13.60;;;;;;;;;;4982354;28;20199;-71
2022/08/26 07:57:25;;;;;;;32.93;13.97;;;;;;;;;;4986926;28;20695;-71
2022/08/26 08:00:13;;;;;;;30.17;13.63;;;;;;;;;;5007962;28;20880;-71
2022/08/26 08:03:20;;;;;;;27.27;12.50;;;;;;;;;;5000676;28;20669;-69
2022/08/26 08:06:05;;;;;;;27.20;12.37;;;;;;;;;;4993345;28;20746;-69
2022/08/26 08:08:34;;;;;;;29.27;12.73;;;;;;;;;;5005830;28;20189;-71
2022/08/26 08:11:01;;;;;;;30.90;12.90;;;;;;;;;;5002189;28;20258;-70
2022/08/26 08:13:28;;;;;;;32.97;12.73;;;;;;;;;;5000480;28;20690;-73
2022/08/26 08:15:55;;;;;;;25.83;13.07;;;;;;;;;;5004132;28;20182;-71
2022/08/26 08:18:23;;;;;;;31.73;13.37;;;;;;;;;;5022630;28;21088;-70
2022/08/26 08:20:50;;;;;;;27.23;12.40;;;;;;;;;;5004824;28;20192;-70
2022/08/26 08:23:30;;;;;;;25.07;12.37;;;;;;;;;;5023261;28;20214;-72
2022/08/26 08:26:04;;;;;;;26.37;12.60;;;;;;;;;;5026801;28;20314;-71
2022/08/26 08:28:34;;;;;;;27.07;13.07;;;;;;;;;;5043067;28;20833;-74
2022/08/26 08:31:02;;;;;;;35.87;14.07;;;;;;;;;;5041429;28;20286;-68
2022/08/26 08:33:29;;;;;;;26.07;13.67;;;;;;;;;;5042785;28;20200;-70
2022/08/26 08:35:57;;;;;;;23.23;13.07;;;;;;;;;;5026445;28;20203;-71
2022/08/26 08:38:25;;;;;;;29.67;12.87;;;;;;;;;;5042788;28;20192;-71
2022/08/26 08:40:52;;;;;;;30.90;14.33;;;;;;;;;;5043480;28;20188;-72
2022/08/26 08:43:25;;;;;;;24.93;14.03;;;;;;;;;;5040224;28;20213;-73
2022/08/26 08:45:55;;;;;;;27.23;13.30;;;;;;;;;;5023607;28;20228;-69
2022/08/26 08:48:28;;;;;;;22.47;12.27;;;;;;;;;;5025914;28;21033;-69
2022/08/26 08:51:03;;;;;;;35.73;12.63;;;;;;;;;;5025474;28;20210;-72
2022/08/26 08:53:32;;;;;;;29.23;12.90;;;;;;;;;;5010307;28;20189;-73
2022/08/26 08:56:06;;;;;;;25.00;11.93;;;;;;;;;;5015248;28;20234;-71
2022/08/26 08:58:43;;;;;;;21.87;10.23;;;;;;;;;;5009483;28;21127;-68
2022/08/26 09:01:21;;;;;;;22.97;9.80;;;;;;;;;;5024855;28;20254;-65
2022/08/26 09:04:08;;;;;;;25.23;10.20;;;;;;;;;;5041403;28;20183;-69
2022/08/26 09:06:36;;;;;;;26.10;10.23;;;;;;;;;;4990408;28;20777;-70
2022/08/26 09:09:07;;;;;;;24.80;10.23;;;;;;;;;;5027058;28;20190;-72
2022/08/26 09:11:34;;;;;;;23.73;9.80;;;;;;;;;;5041541;28;20205;-73
2022/08/26 09:14:19;;;;;;;28.13;10.17;;;;;;;;;;5043051;28;20181;-71
2022/08/26 09:16:50;;;;;;;21.67;9.90;;;;;;;;;;5042275;28;20190;-71
2022/08/26 09:19:23;;;;;;;23.47;9.80;;;;;;;;;;5044268;28;20202;-71
2022/08/26 09:21:56;;;;;;;23.27;9.67;;;;;;;;;;5033567;28;20194;-73
2022/08/26 09:24:23;;;;;;;21.40;8.93;;;;;;;;;;5024202;28;20234;-73
2022/08/26 09:26:57;;;;;;;21.83;8.83;;;;;;;;;;5039915;28;20231;-66
2022/08/26 09:29:25;;;;;;;17.57;8.00;;;;;;;;;;5041196;28;20561;-66
2022/08/26 09:32:11;;;;;;;18.53;8.30;;;;;;;;;;5039185;28;20195;-72
2022/08/26 09:34:50;;;;;;;15.40;6.97;;;;;;;;;;5039949;28;20195;-71
2022/08/26 09:37:31;;;;;;;19.60;7.30;;;;;;;;;;5038715;28;20187;-68
2022/08/26 09:40:21;;;;;;;18.50;7.27;;;;;;;;;;5042804;28;20216;-72
2022/08/26 09:43:10;;;;;;;17.67;6.90;;;;;;;;;;5042914;28;20702;-72
2022/08/26 09:45:41;;;;;;;17.43;6.40;;;;;;;;;;5043274;28;20191;-72
2022/08/26 09:48:31;;;;;;;18.27;6.80;;;;;;;;;;5038846;28;20216;-69
2022/08/26 09:51:03;;;;;;;20.73;6.67;;;;;;;;;;5038899;28;20542;-69
2022/08/26 09:53:49;;;;;;;18.13;6.07;;;;;;;;;;5041753;28;20174;-69
2022/08/26 09:56:33;;;;;;;21.33;6.57;;;;;;;;;;5027182;28;20223;-72
2022/08/26 09:59:01;;;;;;;17.63;6.27;;;;;;;;;;5040256;28;20198;-73
2022/08/26 10:01:42;;;;;;;13.53;5.20;;;;;;;;;;5038632;28;20233;-71
2022/08/26 10:04:29;;;;;;;14.80;6.20;;;;;;;;;;5038889;28;20198;-70
2022/08/26 10:07:01;;;;;;;14.93;5.53;;;;;;;;;;5037313;28;20238;-73
2022/08/26 10:09:46;;;;;;;14.07;4.77;;;;;;;;;;5040455;28;20249;-70
2022/08/26 10:12:20;;;;;;;11.30;3.90;;;;;;;;;;5041000;28;20190;-74
2022/08/26 10:14:47;;;;;;;12.77;5.00;;;;;;;;;;5015666;28;20203;-74
2022/08/26 10:17:21;;;;;;;13.23;4.80;;;;;;;;;;5038880;28;21030;-76
2022/08/26 10:19:58;;;;;;;10.10;3.40;;;;;;;;;;5039804;28;21354;-75
2022/08/26 10:22:36;;;;;;;11.00;3.93;;;;;;;;;;5019414;28;20229;-80
2022/08/26 10:25:23;;;;;;;9.67;3.50;;;;;;;;;;5024727;28;20223;-75
2022/08/26 10:28:03;;;;;;;11.87;3.70;;;;;;;;;;5036397;28;20759;-73
2022/08/26 10:30:37;;;;;;;13.20;3.93;;;;;;;;;;5042978;28;20268;-74
2022/08/26 10:33:10;;;;;;;9.07;3.70;;;;;;;;;;5038933;28;20321;-76
2022/08/26 10:35:47;;;;;;;13.80;3.77;;;;;;;;;;5021375;28;20195;-72
2022/08/26 10:38:17;;;;;;;12.13;3.70;;;;;;;;;;5021273;28;20202;-73
2022/08/26 10:40:52;;;;;;;8.00;3.67;;;;;;;;;;5036944;28;20330;-72
2022/08/26 10:43:32;;;;;;;8.00;4.00;;;;;;;;;;5036715;28;20197;-76
2022/08/26 10:46:04;;;;;;;9.83;4.03;;;;;;;;;;5039257;28;20881;-71
2022/08/26 10:48:35;;;;;;;13.50;4.30;;;;;;;;;;5022057;28;20198;-73
2022/08/26 10:51:02;;;;;;;8.33;3.47;;;;;;;;;;5037862;28;20860;-73
2022/08/26 10:53:50;;;;;;;10.10;3.77;;;;;;;;;;5041657;28;20195;-72
2022/08/26 10:56:35;;;;;;;14.23;5.00;;;;;;;;;;5042736;28;20198;-72
2022/08/26 10:59:05;;;;;;;10.80;4.17;;;;;;;;;;5047023;28;20210;-70
2022/08/26 11:01:42;;;;;;;9.63;3.90;;;;;;;;;;5045231;28;20728;-73
2022/08/26 11:04:19;;;;;;;11.30;4.27;;;;;;;;;;5024904;28;20199;-75
2022/08/26 11:06:48;;;;;;;11.50;3.97;;;;;;;;;;5024290;28;20229;-70
2022/08/26 11:09:34;;;;;;;13.20;4.17;;;;;;;;;;5041723;28;20187;-69
2022/08/26 11:12:37;;;;;;;10.30;3.93;;;;;;;;;;5026916;28;20937;-73
2022/08/26 11:15:06;;;;;;;12.17;4.10;;;;;;;;;;5036931;28;20190;-79
2022/08/26 11:17:50;;;;;;;12.07;4.00;;;;;;;;;;5034942;28;20174;-72
2022/08/26 11:20:22;;;;;;;8.43;4.10;;;;;;;;;;5036622;28;20210;-71
2022/08/26 11:22:50;;;;;;;8.77;3.90;;;;;;;;;;5040026;28;20233;-75
2022/08/26 11:25:17;;;;;;;9.53;4.00;;;;;;;;;;5024578;28;20227;-75
2022/08/26 11:27:47;;;;;;;9.43;4.07;;;;;;;;;;5022152;28;20757;-73
2022/08/26 11:30:15;;;;;;;12.23;4.20;;;;;;;;;;5041708;28;20219;-79
2022/08/26 11:32:56;;;;;;;10.10;4.10;;;;;;;;;;5040131;28;20210;-69
2022/08/26 11:35:23;;;;;;;13.20;4.30;;;;;;;;;;5037003;28;20205;-74
2022/08/26 11:37:50;;;;;;;10.03;4.13;;;;;;;;;;5041849;28;20658;-73
2022/08/26 11:40:20;;;;;;;12.13;4.27;;;;;;;;;;5042007;28;20187;-75
2022/08/26 11:42:53;;;;;;;12.50;4.30;;;;;;;;;;5042032;28;20222;-75
2022/08/26 11:45:48;;;;;;;11.30;3.93;;;;;;;;;;5024884;28;20271;-72
2022/08/26 11:48:20;;;;;;;9.50;3.87;;;;;;;;;;5038605;28;20727;-72
2022/08/26 11:50:53;;;;;;;10.83;4.87;;;;;;;;;;5043630;28;20805;-76
2022/08/26 11:53:21;;;;;;;7.13;3.70;;;;;;;;;;5045869;28;20201;-73
2022/08/26 11:55:52;;;;;;;9.80;3.90;;;;;;;;;;5044597;28;20191;-77
2022/08/26 11:58:19;;;;;;;11.77;4.37;;;;;;;;;;5043698;28;20190;-75
2022/08/26 12:00:49;;;;;;;13.83;4.50;;;;;;;;;;5043430;28;20682;-78
2022/08/26 12:03:18;;;;;;;11.37;4.13;;;;;;;;;;5044672;28;20646;-74
2022/08/26 12:05:45;;;;;;;7.23;4.00;;;;;;;;;;5042461;28;20622;-73
2022/08/26 12:08:15;;;;;;;8.07;3.30;;;;;;;;;;5045714;28;20225;-71
2022/08/26 12:10:50;;;;;;;10.10;3.50;;;;;;;;;;5044766;28;20950;-71
2022/08/26 12:13:29;;;;;;;7.73;3.40;;;;;;;;;;5044619;28;20226;-71
2022/08/26 12:15:57;;;;;;;9.27;3.33;;;;;;;;;;5044027;28;20183;-72
2022/08/26 12:18:36;;;;;;;10.67;3.20;;;;;;;;;;5044025;28;20599;-72
2022/08/26 12:21:14;;;;;;;8.33;3.07;;;;;;;;;;5044499;28;20202;-72
2022/08/26 12:23:45;;;;;;;10.20;3.30;;;;;;;;;;5042921;28;20195;-73
2022/08/26 12:26:19;;;;;;;8.20;3.10;;;;;;;;;;5045717;28;20199;-72
2022/08/26 12:28:50;;;;;;;7.50;3.20;;;;;;;;;;5043043;28;20197;-71
2022/08/26 12:31:23;;;;;;;12.47;3.10;;;;;;;;;;5045139;28;20270;-74
2022/08/26 12:33:51;;;;;;;5.57;2.90;;;;;;;;;;5043030;28;20792;-72
2022/08/26 12:36:20;;;;;;;10.83;3.57;;;;;;;;;;5043125;28;20224;-73
2022/08/26 12:38:48;;;;;;;11.50;3.47;;;;;;;;;;5042211;28;20223;-76
2022/08/26 12:41:38;;;;;;;12.77;3.10;;;;;;;;;;5041043;28;20734;-73
2022/08/26 12:44:05;;;;;;;7.07;3.10;;;;;;;;;;5042108;28;20293;-73
2022/08/26 12:46:33;;;;;;;9.10;3.27;;;;;;;;;;5045206;28;20288;-77
2022/08/26 12:49:01;;;;;;;5.37;3.10;;;;;;;;;;5026001;28;20322;-77
2022/08/26 12:51:30;;;;;;;13.27;3.47;;;;;;;;;;5042820;28;20286;-77
2022/08/26 12:53:57;;;;;;;7.17;2.97;;;;;;;;;;5042040;28;20278;-81
2022/08/26 12:56:28;;;;;;;10.13;3.63;;;;;;;;;;5028565;28;20199;-79
2022/08/26 12:59:13;;;;;;;8.40;3.20;;;;;;;;;;5044222;28;20642;-71
2022/08/26 13:01:58;;;;;;;9.50;3.60;;;;;;;;;;5040447;28;20592;-67
2022/08/26 13:04:41;;;;;;;6.90;2.90;;;;;;;;;;5040583;28;20219;-72
2022/08/26 13:07:13;;;;;;;7.43;3.27;;;;;;;;;;5043173;28;20569;-72
2022/08/26 13:09:40;;;;;;;9.40;3.27;;;;;;;;;;5019807;28;20199;-77
2022/08/26 13:12:10;;;;;;;6.57;2.97;;;;;;;;;;5041832;28;20199;-76
2022/08/26 13:14:55;;;;;;;8.20;3.43;;;;;;;;;;5041199;28;20244;-75
2022/08/26 13:17:22;;;;;;;7.00;2.77;;;;;;;;;;5040781;28;20239;-77
2022/08/26 13:20:06;;;;;;;9.67;3.30;;;;;;;;;;5040708;28;20236;-71
2022/08/26 13:22:33;;;;;;;8.67;3.40;;;;;;;;;;5040637;28;20192;-76
2022/08/26 13:25:00;;;;;;;12.93;3.40;;;;;;;;;;5042276;28;20714;-75
2022/08/26 13:27:27;;;;;;;6.83;3.60;;;;;;;;;;5042146;28;20574;-71
2022/08/26 13:29:56;;;;;;;7.27;3.30;;;;;;;;;;5041490;28;20313;-73
2022/08/26 13:32:41;;;;;;;9.37;3.30;;;;;;;;;;5042452;28;20175;-72
2022/08/26 13:35:08;;;;;;;7.50;3.20;;;;;;;;;;5010981;28;20293;-75
2022/08/26 13:37:54;;;;;;;6.87;3.40;;;;;;;;;;5042366;28;20171;-77
2022/08/26 13:40:21;;;;;;;10.17;3.83;;;;;;;;;;5039804;28;20198;-80
2022/08/26 13:42:48;;;;;;;10.83;3.40;;;;;;;;;;5010112;28;20206;-74
2022/08/26 13:45:15;;;;;;;11.77;4.00;;;;;;;;;;5030800;28;20189;-77
2022/08/26 13:47:43;;;;;;;10.97;3.50;;;;;;;;;;5025023;28;20962;-78
2022/08/26 13:50:10;;;;;;;7.43;3.40;;;;;;;;;;5040907;28;20197;-71
2022/08/26 13:52:37;;;;;;;8.20;3.20;;;;;;;;;;5041487;28;20274;-75
2022/08/26 13:55:05;;;;;;;8.30;3.50;;;;;;;;;;5042485;28;20187;-79
2022/08/26 13:57:33;;;;;;;7.47;3.47;;;;;;;;;;5039577;28;20256;-81
2022/08/26 14:00:00;;;;;;;6.20;3.30;;;;;;;;;;5042418;28;20193;-74
2022/08/26 14:02:34;;;;;;;10.03;3.47;;;;;;;;;;5042085;28;20608;-76
2022/08/26 14:05:03;;;;;;;7.03;3.40;;;;;;;;;;5038534;28;20993;-74
2022/08/26 14:07:30;;;;;;;7.97;3.50;;;;;;;;;;5039917;28;20805;-76
2022/08/26 14:09:57;;;;;;;15.27;3.90;;;;;;;;;;5039175;28;20249;-71
2022/08/26 14:12:24;;;;;;;5.87;3.50;;;;;;;;;;5026506;28;20201;-70
2022/08/26 14:14:51;;;;;;;10.27;3.47;;;;;;;;;;5049228;28;20191;-71
2022/08/26 14:17:19;;;;;;;10.20;3.50;;;;;;;;;;5031703;28;20755;-70
2022/08/26 14:19:46;;;;;;;7.93;4.00;;;;;;;;;;5031138;28;20187;-70
2022/08/26 14:22:17;;;;;;;6.57;3.67;;;;;;;;;;5048593;28;20614;-70
2022/08/26 14:24:44;;;;;;;10.73;3.90;;;;;;;;;;5046923;28;20276;-70
2022/08/26 14:27:11;;;;;;;10.60;5.17;;;;;;;;;;5048879;28;20215;-70
2022/08/26 14:29:38;;;;;;;12.17;5.13;;;;;;;;;;5048733;28;20252;-70
2022/08/26 14:32:08;;;;;;;9.83;4.67;;;;;;;;;;5031528;28;20183;-70
2022/08/26 14:34:36;;;;;;;8.43;4.80;;;;;;;;;;5044433;28;20202;-72
2022/08/26 14:37:03;;;;;;;10.73;4.30;;;;;;;;;;5038747;28;20350;-72
2022/08/26 14:39:34;;;;;;;10.97;4.63;;;;;;;;;;5040360;28;20292;-71
2022/08/26 14:42:01;;;;;;;6.80;4.63;;;;;;;;;;5036962;28;20184;-71
2022/08/26 14:44:29;;;;;;;9.40;4.43;;;;;;;;;;5042378;28;21040;-71
2022/08/26 14:46:58;;;;;;;8.33;3.83;;;;;;;;;;5038918;28;20207;-71
2022/08/26 14:49:43;;;;;;;9.63;4.03;;;;;;;;;;5037568;28;20182;-70
2022/08/26 14:52:09;;;;;;;7.13;3.47;;;;;;;;;;5026414;28;20190;-72
2022/08/26 14:54:36;;;;;;;7.97;3.87;;;;;;;;;;5039587;28;20199;-73
2022/08/26 14:57:06;;;;;;;9.30;3.90;;;;;;;;;;5016607;28;20214;-73
2022/08/26 14:59:35;;;;;;;8.20;3.80;;;;;;;;;;5021678;28;21141;-75
2022/08/26 15:02:02;;;;;;;7.10;4.13;;;;;;;;;;5033349;28;20191;-76